Hundvaag 1 weather for Apr 2005
Month no. 214
Obs.
Da.
Temp. Dew Point Precip. Wind
Speed
Wind gusts Cloud cover Press. Humidity Wind dir. Sunny OPT
01.04.2005 -0,4   0,0 3,0   10 1022,5 56,0 135,0 1 77,5 %
02.04.2005 8,0   0,0 12,0   10 1020,3 53,0 135,0 1 80,0 %
03.04.2005 10,3   0,0 9,0   10 1018,7 35,0 112,5 1 85,0 %
04.04.2005 10,5   0,0 16,0   0 1013,7 87,0 180,0   55,0 %
05.04.2005 5,3   13,0 10,0   0 1011,0 87,0 202,5 1 45,0 %
06.04.2005 3,9   3,0 14,0   9 1010,7 87,0 157,5 1 70,0 %
07.04.2005 4,8   14,9 10,0   0 997,5 87,0 180,0   42,5 %
08.04.2005 3,6   13,0 8,0   0 998,9 93,0 180,0   42,5 %
09.04.2005 4,0   0,0 14,5   10 1009,7 77,0 315,0 1 75,0 %
10.04.2005 3,8   0,0 11,3   1 1010,0 88,0 225,0 1 52,5 %
11.04.2005 7,4   15,0 10,0   0 1014,4 93,0 247,5   42,5 %
12.04.2005 7,0   16,0 9,0   0 1011,8 93,0 247,5 1 42,5 %
13.04.2005 3,7   1,0 6,0   3 1010,7 93,0 157,5 1 62,5 %
14.04.2005 1,9   0,0 0,0   8 1010,0 93,0   1 75,0 %
15.04.2005 5,6   0,0 1,0   0 1010,7 76,0     60,0 %
16.04.2005 9,6   2,5 0,0   7 1012,9 87,0   1 80,0 %
17.04.2005 12,0   0,0 0,0   3 1012,0 93,0   1 72,5 %
18.04.2005 7,8   0,0 2,0   9 1010,5 50,0 157,5 1 85,0 %
19.04.2005 5,7   0,0 0,0   10 1012,7 53,0   1 85,0 %
20.04.2005 2,9   0,0 3,0   10 1015,9 87,0 112,5 1 82,5 %
21.04.2005 5,0   0,0 3,0   0 1017,3 87,0 0,0 1 60,0 %
22.04.2005 1,7   0,0 1,0   10 1015,4 93,0   1 80,0 %
23.04.2005 4,7   0,0 0,0   10 1021,9 84,0   1 82,5 %
24.04.2005 1,8   0,1 13,6   10 1015,8 77,0   1 72,5 %
25.04.2005 3,3   0,0 0,0   10 1017,2 75,0   1 82,5 %
26.04.2005 5,1   0,0 2,0   10 1017,3 75,0 157,5 1 85,0 %
27.04.2005 6,3   0,0 7,0   10 1015,4 53,0 90,0 1 82,5 %
28.04.2005 8,0   0,0 2,0   8 1015,3 61,0 157,5 1 82,5 %
29.04.2005 9,1   0,5 17,0   0 1013,1 82,0 135,0   52,5 %
30.04.2005 9,3   2,0 16,1   10 1017,8 75,0 202,5 1 77,5 %
                       
Avrg/Sum 5,7   81,0 6,7   5,9 1013,4 77,7 166,1 24 69,0 %